sensor_id;sensor_type;location;lat;lon;timestamp;temperature;humidity
44229;DHT22;29904;51.058;5.378;2023-02-28T00:00:51;0.50;99.90
44229;DHT22;29904;51.058;5.378;2023-02-28T00:03:17;0.50;99.90
44229;DHT22;29904;51.058;5.378;2023-02-28T00:05:43;0.50;99.90
44229;DHT22;29904;51.058;5.378;2023-02-28T00:08:09;0.50;99.90
44229;DHT22;29904;51.058;5.378;2023-02-28T00:10:35;0.50;99.90
44229;DHT22;29904;51.058;5.378;2023-02-28T00:13:04;0.40;99.90
44229;DHT22;29904;51.058;5.378;2023-02-28T00:15:31;0.40;99.90
44229;DHT22;29904;51.058;5.378;2023-02-28T00:17:59;0.40;99.90
44229;DHT22;29904;51.058;5.378;2023-02-28T00:20:25;0.40;99.90
44229;DHT22;29904;51.058;5.378;2023-02-28T00:22:52;0.40;99.90
44229;DHT22;29904;51.058;5.378;2023-02-28T00:25:23;0.30;99.90
44229;DHT22;29904;51.058;5.378;2023-02-28T00:27:49;0.30;99.90
44229;DHT22;29904;51.058;5.378;2023-02-28T00:30:21;0.30;99.90
44229;DHT22;29904;51.058;5.378;2023-02-28T00:32:49;0.30;99.90
44229;DHT22;29904;51.058;5.378;2023-02-28T00:35:15;0.30;99.90
44229;DHT22;29904;51.058;5.378;2023-02-28T00:37:41;0.20;99.90
44229;DHT22;29904;51.058;5.378;2023-02-28T00:40:07;0.20;99.90
44229;DHT22;29904;51.058;5.378;2023-02-28T00:42:34;0.20;99.90
44229;DHT22;29904;51.058;5.378;2023-02-28T00:45:00;0.20;99.90
44229;DHT22;29904;51.058;5.378;2023-02-28T00:47:26;0.10;99.90
44229;DHT22;29904;51.058;5.378;2023-02-28T00:49:52;0.10;99.90
44229;DHT22;29904;51.058;5.378;2023-02-28T00:52:18;0.10;99.90
44229;DHT22;29904;51.058;5.378;2023-02-28T00:54:45;0.00;99.90
44229;DHT22;29904;51.058;5.378;2023-02-28T00:57:13;0.00;99.90
44229;DHT22;29904;51.058;5.378;2023-02-28T00:59:38;0.00;99.90
44229;DHT22;29904;51.058;5.378;2023-02-28T01:02:04;0.00;99.90
44229;DHT22;29904;51.058;5.378;2023-02-28T01:04:30;-0.10;99.90
44229;DHT22;29904;51.058;5.378;2023-02-28T01:06:56;-0.10;99.90
44229;DHT22;29904;51.058;5.378;2023-02-28T01:09:23;-0.10;99.90
44229;DHT22;29904;51.058;5.378;2023-02-28T01:11:49;-0.20;99.90
44229;DHT22;29904;51.058;5.378;2023-02-28T01:14:16;-0.20;99.90
44229;DHT22;29904;51.058;5.378;2023-02-28T01:16:43;-0.30;99.90
44229;DHT22;29904;51.058;5.378;2023-02-28T01:19:09;-0.30;99.90
44229;DHT22;29904;51.058;5.378;2023-02-28T01:21:37;-0.40;99.90
44229;DHT22;29904;51.058;5.378;2023-02-28T01:24:04;-0.40;99.90
44229;DHT22;29904;51.058;5.378;2023-02-28T01:26:30;-0.40;99.90
44229;DHT22;29904;51.058;5.378;2023-02-28T01:28:56;-0.40;99.90
44229;DHT22;29904;51.058;5.378;2023-02-28T01:31:23;-0.40;99.90
44229;DHT22;29904;51.058;5.378;2023-02-28T01:33:49;-0.40;99.90
44229;DHT22;29904;51.058;5.378;2023-02-28T01:36:18;-0.40;99.90
44229;DHT22;29904;51.058;5.378;2023-02-28T01:38:44;-0.40;99.90
44229;DHT22;29904;51.058;5.378;2023-02-28T01:41:19;-0.40;99.90
44229;DHT22;29904;51.058;5.378;2023-02-28T01:46:13;-0.50;99.90
44229;DHT22;29904;51.058;5.378;2023-02-28T01:49:11;-0.50;99.90
44229;DHT22;29904;51.058;5.378;2023-02-28T01:51:49;-0.50;99.90
44229;DHT22;29904;51.058;5.378;2023-02-28T01:54:25;-0.50;99.90
44229;DHT22;29904;51.058;5.378;2023-02-28T01:57:08;-0.50;99.90
44229;DHT22;29904;51.058;5.378;2023-02-28T01:59:37;-0.60;99.90
44229;DHT22;29904;51.058;5.378;2023-02-28T02:02:05;-0.60;99.90
44229;DHT22;29904;51.058;5.378;2023-02-28T02:04:42;-0.60;99.90
44229;DHT22;29904;51.058;5.378;2023-02-28T02:07:12;-0.50;99.90
44229;DHT22;29904;51.058;5.378;2023-02-28T02:09:39;-0.50;99.90
44229;DHT22;29904;51.058;5.378;2023-02-28T02:12:37;-0.60;99.90
44229;DHT22;29904;51.058;5.378;2023-02-28T02:17:43;-0.60;99.90
44229;DHT22;29904;51.058;5.378;2023-02-28T02:31:24;-0.80;99.90
44229;DHT22;29904;51.058;5.378;2023-02-28T02:39:35;-0.80;99.90
44229;DHT22;29904;51.058;5.378;2023-02-28T02:42:05;-0.90;99.90
44229;DHT22;29904;51.058;5.378;2023-02-28T02:44:48;-0.90;99.90
44229;DHT22;29904;51.058;5.378;2023-02-28T02:47:18;-0.90;99.90
44229;DHT22;29904;51.058;5.378;2023-02-28T02:49:53;-0.90;99.90
44229;DHT22;29904;51.058;5.378;2023-02-28T02:52:23;-1.00;99.90
44229;DHT22;29904;51.058;5.378;2023-02-28T02:54:52;-1.00;99.90
44229;DHT22;29904;51.058;5.378;2023-02-28T02:57:23;-1.00;99.90
44229;DHT22;29904;51.058;5.378;2023-02-28T02:59:51;-1.00;99.90
44229;DHT22;29904;51.058;5.378;2023-02-28T03:02:20;-1.10;99.90
44229;DHT22;29904;51.058;5.378;2023-02-28T03:04:52;-1.10;99.90
44229;DHT22;29904;51.058;5.378;2023-02-28T03:07:19;-1.10;99.90
44229;DHT22;29904;51.058;5.378;2023-02-28T03:09:53;-1.10;99.90
44229;DHT22;29904;51.058;5.378;2023-02-28T03:12:21;-1.20;99.90
44229;DHT22;29904;51.058;5.378;2023-02-28T03:15:12;-1.20;99.90
44229;DHT22;29904;51.058;5.378;2023-02-28T03:18:10;-1.20;99.90
44229;DHT22;29904;51.058;5.378;2023-02-28T03:21:02;-1.20;99.90
44229;DHT22;29904;51.058;5.378;2023-02-28T03:23:54;-1.20;99.90
44229;DHT22;29904;51.058;5.378;2023-02-28T03:26:24;-1.20;99.90
44229;DHT22;29904;51.058;5.378;2023-02-28T03:29:07;-1.20;99.90
44229;DHT22;29904;51.058;5.378;2023-02-28T03:31:50;-1.20;99.90
44229;DHT22;29904;51.058;5.378;2023-02-28T03:37:13;-1.00;99.90
44229;DHT22;29904;51.058;5.378;2023-02-28T03:39:58;-0.90;99.90
44229;DHT22;29904;51.058;5.378;2023-02-28T03:42:27;-0.80;99.90
44229;DHT22;29904;51.058;5.378;2023-02-28T03:44:59;-0.70;99.90
44229;DHT22;29904;51.058;5.378;2023-02-28T03:50:18;-0.50;99.90
44229;DHT22;29904;51.058;5.378;2023-02-28T03:53:00;-0.50;99.90
44229;DHT22;29904;51.058;5.378;2023-02-28T03:55:29;-0.40;99.90
44229;DHT22;29904;51.058;5.378;2023-02-28T03:58:14;-0.30;99.90
44229;DHT22;29904;51.058;5.378;2023-02-28T04:00:46;-0.40;99.90
44229;DHT22;29904;51.058;5.378;2023-02-28T04:03:15;-0.40;99.90
44229;DHT22;29904;51.058;5.378;2023-02-28T04:05:53;-0.40;99.90
44229;DHT22;29904;51.058;5.378;2023-02-28T04:08:20;-0.40;99.90
44229;DHT22;29904;51.058;5.378;2023-02-28T04:10:50;-0.40;99.90
44229;DHT22;29904;51.058;5.378;2023-02-28T04:13:18;-0.50;99.90
44229;DHT22;29904;51.058;5.378;2023-02-28T04:15:44;-0.50;99.90
44229;DHT22;29904;51.058;5.378;2023-02-28T04:18:10;-0.50;99.90
44229;DHT22;29904;51.058;5.378;2023-02-28T04:20:35;-0.60;99.90
44229;DHT22;29904;51.058;5.378;2023-02-28T04:23:01;-0.70;99.90
44229;DHT22;29904;51.058;5.378;2023-02-28T04:25:27;-0.70;99.90
44229;DHT22;29904;51.058;5.378;2023-02-28T04:27:53;-0.70;99.90
44229;DHT22;29904;51.058;5.378;2023-02-28T04:30:20;-0.70;99.90
44229;DHT22;29904;51.058;5.378;2023-02-28T04:32:46;-0.80;99.90
44229;DHT22;29904;51.058;5.378;2023-02-28T04:35:12;-0.80;99.90
44229;DHT22;29904;51.058;5.378;2023-02-28T04:37:38;-0.80;99.90
44229;DHT22;29904;51.058;5.378;2023-02-28T04:40:04;-0.90;99.90
44229;DHT22;29904;51.058;5.378;2023-02-28T04:42:30;-0.90;99.90
44229;DHT22;29904;51.058;5.378;2023-02-28T04:45:02;-0.90;99.90
44229;DHT22;29904;51.058;5.378;2023-02-28T04:47:29;-0.90;99.90
44229;DHT22;29904;51.058;5.378;2023-02-28T04:49:55;-0.90;99.90
44229;DHT22;29904;51.058;5.378;2023-02-28T04:52:23;-0.90;99.90
44229;DHT22;29904;51.058;5.378;2023-02-28T04:54:51;-0.90;99.90
44229;DHT22;29904;51.058;5.378;2023-02-28T04:57:16;-1.00;99.90
44229;DHT22;29904;51.058;5.378;2023-02-28T04:59:42;-1.00;99.90
44229;DHT22;29904;51.058;5.378;2023-02-28T05:02:10;-1.00;99.90
44229;DHT22;29904;51.058;5.378;2023-02-28T05:04:36;-1.00;99.90
44229;DHT22;29904;51.058;5.378;2023-02-28T05:07:02;-1.10;99.90
44229;DHT22;29904;51.058;5.378;2023-02-28T05:09:28;-1.10;99.90
44229;DHT22;29904;51.058;5.378;2023-02-28T05:11:54;-1.20;99.90
44229;DHT22;29904;51.058;5.378;2023-02-28T05:14:20;-1.20;99.90
44229;DHT22;29904;51.058;5.378;2023-02-28T05:16:48;-1.30;99.90
44229;DHT22;29904;51.058;5.378;2023-02-28T05:19:14;-1.30;99.90
44229;DHT22;29904;51.058;5.378;2023-02-28T05:21:53;-1.40;99.90
44229;DHT22;29904;51.058;5.378;2023-02-28T05:24:19;-1.40;99.90
44229;DHT22;29904;51.058;5.378;2023-02-28T05:26:49;-1.40;99.90
44229;DHT22;29904;51.058;5.378;2023-02-28T05:29:17;-1.40;99.90
44229;DHT22;29904;51.058;5.378;2023-02-28T05:31:45;-1.50;99.90
44229;DHT22;29904;51.058;5.378;2023-02-28T05:34:10;-1.50;99.90
44229;DHT22;29904;51.058;5.378;2023-02-28T05:36:38;-1.50;99.90
44229;DHT22;29904;51.058;5.378;2023-02-28T05:39:06;-1.50;99.90
44229;DHT22;29904;51.058;5.378;2023-02-28T05:41:34;-1.60;99.90
44229;DHT22;29904;51.058;5.378;2023-02-28T05:44:00;-1.60;99.90
44229;DHT22;29904;51.058;5.378;2023-02-28T05:46:26;-1.60;99.90
44229;DHT22;29904;51.058;5.378;2023-02-28T05:48:52;-1.60;99.90
44229;DHT22;29904;51.058;5.378;2023-02-28T05:51:18;-1.50;99.90
44229;DHT22;29904;51.058;5.378;2023-02-28T05:53:43;-1.60;99.90
44229;DHT22;29904;51.058;5.378;2023-02-28T05:56:11;-1.70;99.90
44229;DHT22;29904;51.058;5.378;2023-02-28T05:58:37;-1.70;99.90
44229;DHT22;29904;51.058;5.378;2023-02-28T06:03:48;-1.60;99.90
44229;DHT22;29904;51.058;5.378;2023-02-28T06:06:14;-1.60;99.90
44229;DHT22;29904;51.058;5.378;2023-02-28T06:08:40;-1.60;99.90
44229;DHT22;29904;51.058;5.378;2023-02-28T06:11:05;-1.60;99.90
44229;DHT22;29904;51.058;5.378;2023-02-28T06:13:32;-1.60;99.90
44229;DHT22;29904;51.058;5.378;2023-02-28T06:16:00;-1.60;99.90
44229;DHT22;29904;51.058;5.378;2023-02-28T06:18:26;-1.60;99.90
44229;DHT22;29904;51.058;5.378;2023-02-28T06:20:53;-1.60;99.90
44229;DHT22;29904;51.058;5.378;2023-02-28T06:23:22;-1.60;99.90
44229;DHT22;29904;51.058;5.378;2023-02-28T06:25:47;-1.50;99.90
44229;DHT22;29904;51.058;5.378;2023-02-28T06:28:14;-1.50;99.90
44229;DHT22;29904;51.058;5.378;2023-02-28T06:30:40;-1.50;99.90
44229;DHT22;29904;51.058;5.378;2023-02-28T06:33:06;-1.50;99.90
44229;DHT22;29904;51.058;5.378;2023-02-28T06:35:32;-1.50;99.90
44229;DHT22;29904;51.058;5.378;2023-02-28T06:37:57;-1.60;99.90
44229;DHT22;29904;51.058;5.378;2023-02-28T06:40:23;-1.50;99.90
44229;DHT22;29904;51.058;5.378;2023-02-28T06:42:49;-1.50;99.90
44229;DHT22;29904;51.058;5.378;2023-02-28T06:45:14;-1.50;99.90
44229;DHT22;29904;51.058;5.378;2023-02-28T06:47:41;-0.70;99.90
44229;DHT22;29904;51.058;5.378;2023-02-28T06:50:10;-1.40;99.90
44229;DHT22;29904;51.058;5.378;2023-02-28T06:52:36;-1.30;99.90
44229;DHT22;29904;51.058;5.378;2023-02-28T06:55:06;-1.10;99.90
44229;DHT22;29904;51.058;5.378;2023-02-28T06:57:35;-0.90;99.90
44229;DHT22;29904;51.058;5.378;2023-02-28T07:00:07;-0.60;99.90
44229;DHT22;29904;51.058;5.378;2023-02-28T07:02:36;-0.30;99.90
44229;DHT22;29904;51.058;5.378;2023-02-28T07:05:04;-0.10;99.90
44229;DHT22;29904;51.058;5.378;2023-02-28T07:07:30;0.10;99.90
44229;DHT22;29904;51.058;5.378;2023-02-28T07:09:55;0.00;99.90
44229;DHT22;29904;51.058;5.378;2023-02-28T07:12:24;-0.20;99.90
44229;DHT22;29904;51.058;5.378;2023-02-28T07:14:49;-0.30;99.90
44229;DHT22;29904;51.058;5.378;2023-02-28T07:17:16;-0.40;99.90
44229;DHT22;29904;51.058;5.378;2023-02-28T07:19:41;-0.40;99.90
44229;DHT22;29904;51.058;5.378;2023-02-28T07:22:07;-0.30;99.90
44229;DHT22;29904;51.058;5.378;2023-02-28T07:24:33;0.00;99.90
44229;DHT22;29904;51.058;5.378;2023-02-28T07:27:00;0.20;99.90
44229;DHT22;29904;51.058;5.378;2023-02-28T07:29:27;0.20;99.90
44229;DHT22;29904;51.058;5.378;2023-02-28T07:31:52;0.20;99.90
44229;DHT22;29904;51.058;5.378;2023-02-28T07:34:19;0.20;99.90
44229;DHT22;29904;51.058;5.378;2023-02-28T07:36:45;0.20;99.90
44229;DHT22;29904;51.058;5.378;2023-02-28T07:39:12;0.10;99.90
44229;DHT22;29904;51.058;5.378;2023-02-28T07:41:38;0.10;99.90
44229;DHT22;29904;51.058;5.378;2023-02-28T07:44:12;0.10;99.90
44229;DHT22;29904;51.058;5.378;2023-02-28T07:46:40;0.20;99.90
44229;DHT22;29904;51.058;5.378;2023-02-28T07:49:06;0.20;99.90
44229;DHT22;29904;51.058;5.378;2023-02-28T07:51:32;0.20;99.90
44229;DHT22;29904;51.058;5.378;2023-02-28T07:53:57;0.30;99.90
44229;DHT22;29904;51.058;5.378;2023-02-28T07:56:23;0.30;99.90
44229;DHT22;29904;51.058;5.378;2023-02-28T07:58:49;0.30;99.90
44229;DHT22;29904;51.058;5.378;2023-02-28T08:01:16;0.40;99.90
44229;DHT22;29904;51.058;5.378;2023-02-28T08:03:44;0.40;99.90
44229;DHT22;29904;51.058;5.378;2023-02-28T08:06:19;0.50;99.90
44229;DHT22;29904;51.058;5.378;2023-02-28T08:08:47;0.50;99.90
44229;DHT22;29904;51.058;5.378;2023-02-28T08:11:13;0.60;99.90
44229;DHT22;29904;51.058;5.378;2023-02-28T08:13:40;0.60;99.90
44229;DHT22;29904;51.058;5.378;2023-02-28T08:16:08;0.70;99.90
44229;DHT22;29904;51.058;5.378;2023-02-28T08:18:34;0.90;99.90
44229;DHT22;29904;51.058;5.378;2023-02-28T08:21:09;1.00;99.90
44229;DHT22;29904;51.058;5.378;2023-02-28T08:23:35;1.00;99.90
44229;DHT22;29904;51.058;5.378;2023-02-28T08:26:01;1.10;99.90
44229;DHT22;29904;51.058;5.378;2023-02-28T08:28:27;1.20;99.90
44229;DHT22;29904;51.058;5.378;2023-02-28T08:30:52;1.30;99.90
44229;DHT22;29904;51.058;5.378;2023-02-28T08:33:19;1.30;99.90
44229;DHT22;29904;51.058;5.378;2023-02-28T08:35:44;1.40;99.90
44229;DHT22;29904;51.058;5.378;2023-02-28T08:38:10;1.50;99.90
44229;DHT22;29904;51.058;5.378;2023-02-28T08:40:36;1.60;99.90
44229;DHT22;29904;51.058;5.378;2023-02-28T08:43:02;1.60;99.90
44229;DHT22;29904;51.058;5.378;2023-02-28T08:45:29;1.60;99.90
44229;DHT22;29904;51.058;5.378;2023-02-28T08:48:00;1.60;99.90
44229;DHT22;29904;51.058;5.378;2023-02-28T08:50:25;1.70;99.90
44229;DHT22;29904;51.058;5.378;2023-02-28T08:52:53;1.70;99.90
44229;DHT22;29904;51.058;5.378;2023-02-28T08:55:19;1.80;99.90
44229;DHT22;29904;51.058;5.378;2023-02-28T08:57:45;2.00;99.90
44229;DHT22;29904;51.058;5.378;2023-02-28T09:00:13;2.10;99.90
44229;DHT22;29904;51.058;5.378;2023-02-28T09:02:39;2.10;99.90
44229;DHT22;29904;51.058;5.378;2023-02-28T09:05:06;2.20;99.90
44229;DHT22;29904;51.058;5.378;2023-02-28T09:07:32;2.20;99.90
44229;DHT22;29904;51.058;5.378;2023-02-28T09:09:58;2.30;99.90
44229;DHT22;29904;51.058;5.378;2023-02-28T09:12:25;2.30;99.90
44229;DHT22;29904;51.058;5.378;2023-02-28T09:14:52;2.30;99.90
44229;DHT22;29904;51.058;5.378;2023-02-28T09:17:20;2.40;99.90
44229;DHT22;29904;51.058;5.378;2023-02-28T09:19:48;2.40;99.90
44229;DHT22;29904;51.058;5.378;2023-02-28T09:22:14;2.50;99.90
44229;DHT22;29904;51.058;5.378;2023-02-28T09:24:40;2.50;99.90
44229;DHT22;29904;51.058;5.378;2023-02-28T09:27:06;2.60;99.90
44229;DHT22;29904;51.058;5.378;2023-02-28T09:29:33;2.60;99.90
44229;DHT22;29904;51.058;5.378;2023-02-28T09:31:59;2.60;99.90
44229;DHT22;29904;51.058;5.378;2023-02-28T09:34:26;2.70;99.90
44229;DHT22;29904;51.058;5.378;2023-02-28T09:36:52;2.70;99.90
44229;DHT22;29904;51.058;5.378;2023-02-28T09:39:23;2.80;99.90
44229;DHT22;29904;51.058;5.378;2023-02-28T09:41:51;2.80;99.90
44229;DHT22;29904;51.058;5.378;2023-02-28T09:44:47;2.90;99.90
44229;DHT22;29904;51.058;5.378;2023-02-28T09:47:33;3.00;99.90
44229;DHT22;29904;51.058;5.378;2023-02-28T09:52:38;3.10;99.90
44229;DHT22;29904;51.058;5.378;2023-02-28T09:55:22;3.20;99.90
44229;DHT22;29904;51.058;5.378;2023-02-28T09:57:51;3.30;99.90
44229;DHT22;29904;51.058;5.378;2023-02-28T10:00:19;3.40;99.90
44229;DHT22;29904;51.058;5.378;2023-02-28T10:05:43;3.50;99.90
44229;DHT22;29904;51.058;5.378;2023-02-28T10:08:38;3.50;99.90
44229;DHT22;29904;51.058;5.378;2023-02-28T10:11:10;3.60;99.90
44229;DHT22;29904;51.058;5.378;2023-02-28T10:13:56;3.80;99.90
44229;DHT22;29904;51.058;5.378;2023-02-28T10:16:56;3.70;99.90
44229;DHT22;29904;51.058;5.378;2023-02-28T10:22:33;3.90;99.90
44229;DHT22;29904;51.058;5.378;2023-02-28T10:25:00;3.90;99.90
44229;DHT22;29904;51.058;5.378;2023-02-28T10:27:31;3.90;99.90
44229;DHT22;29904;51.058;5.378;2023-02-28T10:30:01;3.90;99.90
44229;DHT22;29904;51.058;5.378;2023-02-28T10:32:34;3.90;99.90
44229;DHT22;29904;51.058;5.378;2023-02-28T10:35:20;3.90;99.90
44229;DHT22;29904;51.058;5.378;2023-02-28T10:37:49;3.90;99.90
44229;DHT22;29904;51.058;5.378;2023-02-28T10:40:33;4.00;99.90
44229;DHT22;29904;51.058;5.378;2023-02-28T10:43:05;4.00;99.90
44229;DHT22;29904;51.058;5.378;2023-02-28T10:46:03;4.00;99.90
44229;DHT22;29904;51.058;5.378;2023-02-28T10:48:50;4.00;99.90
44229;DHT22;29904;51.058;5.378;2023-02-28T10:51:24;4.20;99.90
44229;DHT22;29904;51.058;5.378;2023-02-28T10:53:52;4.30;99.90
44229;DHT22;29904;51.058;5.378;2023-02-28T10:56:21;4.30;99.90
44229;DHT22;29904;51.058;5.378;2023-02-28T11:01:23;4.50;99.90
44229;DHT22;29904;51.058;5.378;2023-02-28T11:03:50;4.60;99.90
44229;DHT22;29904;51.058;5.378;2023-02-28T11:06:19;4.70;99.90
44229;DHT22;29904;51.058;5.378;2023-02-28T11:09:04;4.70;99.90
44229;DHT22;29904;51.058;5.378;2023-02-28T11:11:40;4.70;99.90
44229;DHT22;29904;51.058;5.378;2023-02-28T11:14:21;4.80;99.90
44229;DHT22;29904;51.058;5.378;2023-02-28T11:16:49;4.90;99.90
44229;DHT22;29904;51.058;5.378;2023-02-28T11:19:50;4.90;99.90
44229;DHT22;29904;51.058;5.378;2023-02-28T11:22:22;5.10;99.90
44229;DHT22;29904;51.058;5.378;2023-02-28T11:24:52;5.10;99.90
44229;DHT22;29904;51.058;5.378;2023-02-28T11:29:55;4.90;99.90
44229;DHT22;29904;51.058;5.378;2023-02-28T11:32:21;4.80;99.90
44229;DHT22;29904;51.058;5.378;2023-02-28T11:37:34;4.90;99.90
44229;DHT22;29904;51.058;5.378;2023-02-28T11:40:00;4.80;99.90
44229;DHT22;29904;51.058;5.378;2023-02-28T11:51:06;4.90;99.90
44229;DHT22;29904;51.058;5.378;2023-02-28T11:54:13;4.90;99.90
44229;DHT22;29904;51.058;5.378;2023-02-28T11:56:54;4.90;99.90
44229;DHT22;29904;51.058;5.378;2023-02-28T11:59:37;4.90;99.90
44229;DHT22;29904;51.058;5.378;2023-02-28T12:02:23;4.90;99.90
44229;DHT22;29904;51.058;5.378;2023-02-28T12:10:46;5.10;99.90
44229;DHT22;29904;51.058;5.378;2023-02-28T12:13:26;5.10;99.90
44229;DHT22;29904;51.058;5.378;2023-02-28T12:19:16;5.10;99.90
44229;DHT22;29904;51.058;5.378;2023-02-28T12:27:33;5.20;99.90
44229;DHT22;29904;51.058;5.378;2023-02-28T12:30:21;5.40;99.90
44229;DHT22;29904;51.058;5.378;2023-02-28T12:33:09;5.30;99.90
44229;DHT22;29904;51.058;5.378;2023-02-28T12:35:52;5.40;99.90
44229;DHT22;29904;51.058;5.378;2023-02-28T12:38:31;5.50;99.90
44229;DHT22;29904;51.058;5.378;2023-02-28T12:41:05;5.60;99.90
44229;DHT22;29904;51.058;5.378;2023-02-28T12:43:40;5.70;99.90
44229;DHT22;29904;51.058;5.378;2023-02-28T12:48:50;5.70;99.90
44229;DHT22;29904;51.058;5.378;2023-02-28T12:51:19;5.70;99.90
44229;DHT22;29904;51.058;5.378;2023-02-28T12:59:18;5.70;99.90
44229;DHT22;29904;51.058;5.378;2023-02-28T13:07:31;5.90;99.90
44229;DHT22;29904;51.058;5.378;2023-02-28T13:10:03;5.80;99.90
44229;DHT22;29904;51.058;5.378;2023-02-28T13:12:29;5.70;99.90
44229;DHT22;29904;51.058;5.378;2023-02-28T13:15:18;5.80;99.90
44229;DHT22;29904;51.058;5.378;2023-02-28T13:17:52;5.90;99.90
44229;DHT22;29904;51.058;5.378;2023-02-28T13:20:19;6.00;99.90
44229;DHT22;29904;51.058;5.378;2023-02-28T13:22:48;6.10;99.90
44229;DHT22;29904;51.058;5.378;2023-02-28T13:28:00;6.00;99.90
44229;DHT22;29904;51.058;5.378;2023-02-28T13:38:44;6.10;99.90
44229;DHT22;29904;51.058;5.378;2023-02-28T13:46:26;6.00;99.90
44229;DHT22;29904;51.058;5.378;2023-02-28T13:48:54;5.90;99.90
44229;DHT22;29904;51.058;5.378;2023-02-28T13:51:43;6.00;99.90
44229;DHT22;29904;51.058;5.378;2023-02-28T13:57:20;6.00;99.90
44229;DHT22;29904;51.058;5.378;2023-02-28T14:05:33;6.00;99.90
44229;DHT22;29904;51.058;5.378;2023-02-28T14:08:22;5.90;99.90
44229;DHT22;29904;51.058;5.378;2023-02-28T14:11:03;5.90;99.90
44229;DHT22;29904;51.058;5.378;2023-02-28T14:13:44;6.00;99.90
44229;DHT22;29904;51.058;5.378;2023-02-28T14:16:20;6.10;99.90
44229;DHT22;29904;51.058;5.378;2023-02-28T14:19:02;5.90;99.90
44229;DHT22;29904;51.058;5.378;2023-02-28T14:21:39;5.80;99.90
44229;DHT22;29904;51.058;5.378;2023-02-28T14:27:45;6.00;99.90
44229;DHT22;29904;51.058;5.378;2023-02-28T14:33:57;6.20;99.90
44229;DHT22;29904;51.058;5.378;2023-02-28T14:36:33;6.20;99.90
44229;DHT22;29904;51.058;5.378;2023-02-28T14:39:12;5.90;99.90
44229;DHT22;29904;51.058;5.378;2023-02-28T14:41:40;5.90;99.90
44229;DHT22;29904;51.058;5.378;2023-02-28T14:44:21;5.90;99.90
44229;DHT22;29904;51.058;5.378;2023-02-28T14:46:50;6.10;99.90
44229;DHT22;29904;51.058;5.378;2023-02-28T14:51:49;5.90;99.90
44229;DHT22;29904;51.058;5.378;2023-02-28T14:54:16;5.90;99.90
44229;DHT22;29904;51.058;5.378;2023-02-28T14:56:49;5.90;99.90
44229;DHT22;29904;51.058;5.378;2023-02-28T14:59:30;5.90;99.90
44229;DHT22;29904;51.058;5.378;2023-02-28T15:02:22;5.80;99.90
44229;DHT22;29904;51.058;5.378;2023-02-28T15:07:20;5.80;99.90
44229;DHT22;29904;51.058;5.378;2023-02-28T15:10:08;5.80;99.90
44229;DHT22;29904;51.058;5.378;2023-02-28T15:12:35;5.90;99.90
44229;DHT22;29904;51.058;5.378;2023-02-28T15:15:03;5.90;99.90
44229;DHT22;29904;51.058;5.378;2023-02-28T15:17:29;5.90;99.90
44229;DHT22;29904;51.058;5.378;2023-02-28T15:19:55;5.90;99.90
44229;DHT22;29904;51.058;5.378;2023-02-28T15:22:31;5.80;99.90
44229;DHT22;29904;51.058;5.378;2023-02-28T15:24:58;5.80;99.90
44229;DHT22;29904;51.058;5.378;2023-02-28T15:27:30;5.90;99.90
44229;DHT22;29904;51.058;5.378;2023-02-28T15:30:00;5.90;99.90
44229;DHT22;29904;51.058;5.378;2023-02-28T15:32:35;5.80;99.90
44229;DHT22;29904;51.058;5.378;2023-02-28T15:38:23;5.70;99.90
44229;DHT22;29904;51.058;5.378;2023-02-28T15:40:54;5.60;99.90
44229;DHT22;29904;51.058;5.378;2023-02-28T15:43:28;5.50;99.90
44229;DHT22;29904;51.058;5.378;2023-02-28T15:46:01;5.60;99.90
44229;DHT22;29904;51.058;5.378;2023-02-28T15:48:31;5.60;99.90
44229;DHT22;29904;51.058;5.378;2023-02-28T15:51:04;5.60;99.90
44229;DHT22;29904;51.058;5.378;2023-02-28T15:53:41;5.70;99.90
44229;DHT22;29904;51.058;5.378;2023-02-28T15:56:24;5.60;99.90
44229;DHT22;29904;51.058;5.378;2023-02-28T15:58:56;5.50;99.90
44229;DHT22;29904;51.058;5.378;2023-02-28T16:03:58;5.40;99.90
44229;DHT22;29904;51.058;5.378;2023-02-28T16:06:44;5.40;99.90
44229;DHT22;29904;51.058;5.378;2023-02-28T16:09:13;5.40;99.90
44229;DHT22;29904;51.058;5.378;2023-02-28T16:11:49;5.40;99.90
44229;DHT22;29904;51.058;5.378;2023-02-28T16:14:23;5.40;99.90
44229;DHT22;29904;51.058;5.378;2023-02-28T16:16:52;5.40;99.90
44229;DHT22;29904;51.058;5.378;2023-02-28T16:19:19;5.30;99.90
44229;DHT22;29904;51.058;5.378;2023-02-28T16:21:45;5.30;99.90
44229;DHT22;29904;51.058;5.378;2023-02-28T16:24:11;5.30;99.90
44229;DHT22;29904;51.058;5.378;2023-02-28T16:26:40;5.20;99.90
44229;DHT22;29904;51.058;5.378;2023-02-28T16:29:08;5.20;99.90
44229;DHT22;29904;51.058;5.378;2023-02-28T16:31:37;5.10;99.90
44229;DHT22;29904;51.058;5.378;2023-02-28T16:34:04;5.10;99.90
44229;DHT22;29904;51.058;5.378;2023-02-28T16:36:30;5.00;99.90
44229;DHT22;29904;51.058;5.378;2023-02-28T16:38:56;5.00;99.90
44229;DHT22;29904;51.058;5.378;2023-02-28T16:41:24;5.00;99.90
44229;DHT22;29904;51.058;5.378;2023-02-28T16:43:53;5.00;99.90
44229;DHT22;29904;51.058;5.378;2023-02-28T16:46:19;5.00;99.90
44229;DHT22;29904;51.058;5.378;2023-02-28T16:48:47;4.90;99.90
44229;DHT22;29904;51.058;5.378;2023-02-28T16:51:17;4.80;99.90
44229;DHT22;29904;51.058;5.378;2023-02-28T16:53:45;4.80;99.90
44229;DHT22;29904;51.058;5.378;2023-02-28T16:56:23;4.70;99.90
44229;DHT22;29904;51.058;5.378;2023-02-28T16:58:50;4.70;99.90
44229;DHT22;29904;51.058;5.378;2023-02-28T17:01:17;4.60;99.90
44229;DHT22;29904;51.058;5.378;2023-02-28T17:03:48;4.60;99.90
44229;DHT22;29904;51.058;5.378;2023-02-28T17:06:23;4.50;99.90
44229;DHT22;29904;51.058;5.378;2023-02-28T17:08:52;4.40;99.90
44229;DHT22;29904;51.058;5.378;2023-02-28T17:11:20;4.30;99.90
44229;DHT22;29904;51.058;5.378;2023-02-28T17:13:46;4.20;99.90
44229;DHT22;29904;51.058;5.378;2023-02-28T17:16:31;4.20;99.90
44229;DHT22;29904;51.058;5.378;2023-02-28T17:19:00;4.10;99.90
44229;DHT22;29904;51.058;5.378;2023-02-28T17:21:27;4.00;99.90
44229;DHT22;29904;51.058;5.378;2023-02-28T17:23:55;3.90;99.90
44229;DHT22;29904;51.058;5.378;2023-02-28T17:26:22;3.90;99.90
44229;DHT22;29904;51.058;5.378;2023-02-28T17:28:51;3.80;99.90
44229;DHT22;29904;51.058;5.378;2023-02-28T17:31:17;3.80;99.90
44229;DHT22;29904;51.058;5.378;2023-02-28T17:33:44;3.70;99.90
44229;DHT22;29904;51.058;5.378;2023-02-28T17:36:30;3.60;99.90
44229;DHT22;29904;51.058;5.378;2023-02-28T17:38:56;3.60;99.90
44229;DHT22;29904;51.058;5.378;2023-02-28T17:41:25;3.50;99.90
44229;DHT22;29904;51.058;5.378;2023-02-28T17:43:56;3.50;99.90
44229;DHT22;29904;51.058;5.378;2023-02-28T17:46:23;3.40;99.90
44229;DHT22;29904;51.058;5.378;2023-02-28T17:48:50;3.40;99.90
44229;DHT22;29904;51.058;5.378;2023-02-28T17:51:22;3.30;99.90
44229;DHT22;29904;51.058;5.378;2023-02-28T17:53:48;3.30;99.90
44229;DHT22;29904;51.058;5.378;2023-02-28T17:56:23;3.20;99.90
44229;DHT22;29904;51.058;5.378;2023-02-28T17:58:52;3.20;99.90
44229;DHT22;29904;51.058;5.378;2023-02-28T18:01:18;3.10;99.90
44229;DHT22;29904;51.058;5.378;2023-02-28T18:03:47;3.10;99.90
44229;DHT22;29904;51.058;5.378;2023-02-28T18:06:25;3.20;99.90
44229;DHT22;29904;51.058;5.378;2023-02-28T18:08:54;3.20;99.90